Time;durP1;ratioP1;P1;durP2;ratioP2;P2;SDS_P1;SDS_P2;PMS_P1;PMS_P2;Temp;Humidity;BMP_temperature;BMP_pressure;BME280_temperature;BME280_humidity;BME280_pressure;Samples;Min_cycle;Max_cycle;Signal;HPM_P1;HPM_P2
2023/08/23 00:00:16;;;;;;;3.60;2.70;;;26.00;82.30;;;;;;4988459;28;20412;-74
2023/08/23 00:02:41;;;;;;;5.13;2.90;;;26.00;81.50;;;;;;4972006;28;20464;-74
2023/08/23 00:05:10;;;;;;;4.93;3.00;;;26.00;81.60;;;;;;4987808;28;20460;-74
2023/08/23 00:07:38;;;;;;;4.10;3.03;;;25.90;81.40;;;;;;4971830;28;20967;-74
2023/08/23 00:10:05;;;;;;;3.17;2.87;;;25.90;81.40;;;;;;4987809;28;20855;-74
2023/08/23 00:12:31;;;;;;;5.20;2.90;;;25.90;81.50;;;;;;4971977;28;20454;-74
2023/08/23 00:14:57;;;;;;;5.40;3.10;;;25.90;81.50;;;;;;4987870;28;21164;-74
2023/08/23 00:17:23;;;;;;;3.00;2.70;;;25.90;81.60;;;;;;4972034;28;20451;-74
2023/08/23 00:19:49;;;;;;;4.40;2.90;;;25.80;81.50;;;;;;4988253;28;20435;-74
2023/08/23 00:22:18;;;;;;;3.10;2.80;;;25.80;81.50;;;;;;4972016;28;20205;-74
2023/08/23 00:24:48;;;;;;;3.00;2.70;;;25.80;81.70;;;;;;5005022;28;20543;-74
2023/08/23 00:27:19;;;;;;;2.90;2.70;;;25.80;81.70;;;;;;4987755;28;20533;-74
2023/08/23 00:29:45;;;;;;;3.70;3.00;;;25.80;81.60;;;;;;4987571;28;20439;-74
2023/08/23 00:32:11;;;;;;;3.13;2.87;;;25.80;81.70;;;;;;4987458;28;20498;-74
2023/08/23 00:34:39;;;;;;;3.17;2.87;;;25.70;81.60;;;;;;4987604;28;20571;-74
2023/08/23 00:37:07;;;;;;;3.43;3.13;;;25.70;81.60;;;;;;4987601;28;20516;-74
2023/08/23 00:39:33;;;;;;;4.70;3.07;;;25.70;81.50;;;;;;4971158;28;20509;-74
2023/08/23 00:42:01;;;;;;;3.23;2.97;;;25.70;81.60;;;;;;4987657;28;20444;-74
2023/08/23 00:44:27;;;;;;;3.07;2.87;;;25.70;81.60;;;;;;4971227;28;20467;-74
2023/08/23 00:46:53;;;;;;;4.33;2.53;;;25.70;81.60;;;;;;4971312;28;20467;-74
2023/08/23 00:49:21;;;;;;;4.60;3.00;;;25.60;81.40;;;;;;4987466;28;20447;-74
2023/08/23 00:51:48;;;;;;;3.80;3.10;;;25.60;81.50;;;;;;4987691;28;20461;-74
2023/08/23 00:54:15;;;;;;;3.17;2.97;;;25.60;81.50;;;;;;4987087;28;20455;-74
2023/08/23 00:56:46;;;;;;;4.20;3.07;;;25.60;81.50;;;;;;4987608;28;20456;-74
2023/08/23 00:59:15;;;;;;;3.83;2.80;;;25.60;81.40;;;;;;4970974;28;20479;-74
2023/08/23 01:01:45;;;;;;;3.40;3.10;;;25.60;81.40;;;;;;4986471;28;20428;-74
2023/08/23 01:04:14;;;;;;;3.17;2.87;;;25.50;81.30;;;;;;4986589;28;20506;-74
2023/08/23 01:06:53;;;;;;;2.70;2.50;;;25.50;81.30;;;;;;4986697;28;20471;-74
2023/08/23 01:09:51;;;;;;;4.47;2.87;;;25.50;81.30;;;;;;5004854;28;20209;-74
2023/08/23 01:12:34;;;;;;;2.70;2.50;;;25.50;81.30;;;;;;4987375;28;20424;-74
2023/08/23 01:15:07;;;;;;;2.90;2.70;;;25.40;81.30;;;;;;4985094;28;20447;-74
2023/08/23 01:17:42;;;;;;;2.90;2.70;;;25.40;81.30;;;;;;4987718;28;20786;-74
2023/08/23 01:20:10;;;;;;;6.80;3.00;;;25.40;81.40;;;;;;4986869;28;20455;-74
2023/08/23 01:22:41;;;;;;;3.40;3.10;;;25.40;81.40;;;;;;4987013;28;21202;-74
2023/08/23 01:25:10;;;;;;;3.40;3.10;;;25.40;81.30;;;;;;4970477;28;20506;-74
2023/08/23 01:27:43;;;;;;;3.03;2.83;;;25.40;81.30;;;;;;4970577;28;21225;-74
2023/08/23 01:30:13;;;;;;;2.83;2.60;;;25.40;81.20;;;;;;4970216;28;20437;-74
2023/08/23 01:33:00;;;;;;;3.27;2.60;;;25.30;81.20;;;;;;4986897;28;20435;-74
2023/08/23 01:35:55;;;;;;;3.57;3.33;;;25.30;81.20;;;;;;4963467;28;20967;-74
2023/08/23 01:38:26;;;;;;;3.10;2.90;;;25.30;81.20;;;;;;4986596;28;20479;-74
2023/08/23 01:40:56;;;;;;;4.00;3.10;;;25.30;81.30;;;;;;4986782;28;20515;-74
2023/08/23 01:43:23;;;;;;;3.70;3.40;;;25.20;81.10;;;;;;4986104;28;20550;-74
2023/08/23 01:45:51;;;;;;;5.20;3.03;;;25.30;81.30;;;;;;4986160;28;20460;-73
2023/08/23 01:48:19;;;;;;;5.93;2.90;;;25.20;81.10;;;;;;4970293;28;20433;-74
2023/08/23 01:50:50;;;;;;;3.30;3.00;;;25.20;81.10;;;;;;4986373;28;20501;-74
2023/08/23 01:53:19;;;;;;;4.13;3.00;;;25.20;81.10;;;;;;5003515;28;20484;-74
2023/08/23 01:55:45;;;;;;;5.93;2.97;;;25.20;81.20;;;;;;4986164;28;20516;-74
2023/08/23 01:58:16;;;;;;;3.40;2.60;;;25.20;81.20;;;;;;4954278;28;20439;-74
2023/08/23 02:00:51;;;;;;;3.70;3.40;;;25.20;81.20;;;;;;4969474;28;20428;-74
2023/08/23 02:03:18;;;;;;;4.33;3.43;;;25.10;81.10;;;;;;4969337;28;20458;-74
2023/08/23 02:05:44;;;;;;;2.83;2.63;;;25.20;81.20;;;;;;4985446;28;20900;-74
2023/08/23 02:08:11;;;;;;;2.80;2.60;;;25.10;81.10;;;;;;5003033;28;20451;-74
2023/08/23 02:10:37;;;;;;;2.93;2.63;;;25.10;81.10;;;;;;4985489;28;20404;-74
2023/08/23 02:13:06;;;;;;;5.17;2.83;;;25.10;81.00;;;;;;4969083;28;20428;-74
2023/08/23 02:15:35;;;;;;;3.50;3.20;;;25.10;81.00;;;;;;4985198;28;20426;-74
2023/08/23 02:18:01;;;;;;;6.10;3.13;;;25.10;81.10;;;;;;5002737;28;20439;-74
2023/08/23 02:20:27;;;;;;;4.30;3.10;;;25.00;81.00;;;;;;4969052;28;20459;-74
2023/08/23 02:22:54;;;;;;;3.63;2.97;;;25.00;81.00;;;;;;4985271;28;20528;-74
2023/08/23 02:25:22;;;;;;;2.80;2.60;;;25.00;81.00;;;;;;4985690;28;20468;-74
2023/08/23 02:27:50;;;;;;;5.10;2.60;;;25.00;81.10;;;;;;4969565;28;20514;-74
2023/08/23 02:30:17;;;;;;;3.27;2.67;;;25.00;81.10;;;;;;4985554;28;20428;-73
2023/08/23 02:32:50;;;;;;;3.87;3.10;;;25.00;81.10;;;;;;4985717;28;20467;-74
2023/08/23 02:35:16;;;;;;;3.33;2.97;;;25.00;81.00;;;;;;4969491;28;20444;-74
2023/08/23 02:37:43;;;;;;;4.03;2.97;;;24.90;80.90;;;;;;4969216;28;20523;-73
2023/08/23 02:40:09;;;;;;;3.30;2.70;;;24.90;81.00;;;;;;4985475;28;20428;-74
2023/08/23 02:42:36;;;;;;;3.20;2.90;;;24.90;81.00;;;;;;4969557;28;21386;-74
2023/08/23 02:45:03;;;;;;;3.53;3.33;;;24.90;81.00;;;;;;4968357;28;20461;-74
2023/08/23 02:47:32;;;;;;;3.30;3.00;;;24.90;81.10;;;;;;4984918;28;20438;-74
2023/08/23 02:50:00;;;;;;;3.50;2.60;;;24.90;81.00;;;;;;4985623;28;20468;-74
2023/08/23 02:52:28;;;;;;;3.00;2.80;;;24.90;81.10;;;;;;4975486;28;20568;-74
2023/08/23 02:54:58;;;;;;;3.20;2.90;;;24.80;80.90;;;;;;4979377;28;20460;-74
2023/08/23 02:57:24;;;;;;;3.50;2.60;;;24.80;80.90;;;;;;4968547;28;21093;-74
2023/08/23 02:59:50;;;;;;;3.30;3.00;;;24.80;81.00;;;;;;4968662;28;20429;-74
2023/08/23 03:02:19;;;;;;;3.07;2.80;;;24.80;81.00;;;;;;4968646;28;20200;-74
2023/08/23 03:04:46;;;;;;;3.30;3.10;;;24.80;81.00;;;;;;4952391;28;21047;-74
2023/08/23 03:07:12;;;;;;;4.03;2.73;;;24.70;81.70;;;;;;5002061;28;20481;-74
2023/08/23 03:09:38;;;;;;;3.20;3.00;;;24.70;80.90;;;;;;5002176;28;20822;-74
2023/08/23 03:12:08;;;;;;;3.30;3.00;;;24.70;80.90;;;;;;4984952;28;20419;-74
2023/08/23 03:14:34;;;;;;;2.90;2.70;;;24.70;81.00;;;;;;5002161;28;20454;-74
2023/08/23 03:17:03;;;;;;;2.90;2.70;;;24.70;81.00;;;;;;4968846;28;20436;-74
2023/08/23 03:19:33;;;;;;;3.30;3.10;;;24.70;81.00;;;;;;4984846;28;21026;-74
2023/08/23 03:21:59;;;;;;;4.43;3.10;;;24.70;81.90;;;;;;4968820;28;20978;-74
2023/08/23 03:24:25;;;;;;;3.27;3.07;;;24.60;81.00;;;;;;4984561;28;20886;-73
2023/08/23 03:26:52;;;;;;;3.30;3.00;;;24.60;81.00;;;;;;4984823;28;20547;-75
2023/08/23 03:29:22;;;;;;;3.27;3.00;;;24.60;80.90;;;;;;5003139;28;20531;-74
2023/08/23 03:31:49;;;;;;;3.57;3.37;;;24.60;80.90;;;;;;4984614;28;20652;-74
2023/08/23 03:34:21;;;;;;;3.80;2.77;;;24.60;80.80;;;;;;4984558;28;20470;-74
2023/08/23 03:36:48;;;;;;;3.27;3.07;;;24.50;80.80;;;;;;4984786;28;20443;-74
2023/08/23 03:39:14;;;;;;;4.50;3.33;;;24.50;80.70;;;;;;4984706;28;20563;-74
2023/08/23 03:41:42;;;;;;;3.50;3.20;;;24.50;80.70;;;;;;4984784;28;20986;-75
2023/08/23 03:44:08;;;;;;;4.60;3.33;;;24.50;80.90;;;;;;4984513;28;20467;-74
2023/08/23 03:46:34;;;;;;;3.33;3.03;;;24.50;80.80;;;;;;4968530;28;20471;-73
2023/08/23 03:49:03;;;;;;;3.10;2.90;;;24.50;80.90;;;;;;4985011;28;20440;-74
2023/08/23 03:51:29;;;;;;;3.63;3.33;;;24.50;81.00;;;;;;5001995;28;20165;-74
2023/08/23 03:53:56;;;;;;;4.33;3.40;;;24.50;81.00;;;;;;4967853;28;20532;-74
2023/08/23 03:56:26;;;;;;;3.47;3.17;;;24.40;80.90;;;;;;4984461;28;20432;-74
2023/08/23 03:58:53;;;;;;;4.17;3.67;;;24.40;81.60;;;;;;4971643;28;20439;-74
2023/08/23 04:01:20;;;;;;;3.07;2.87;;;24.40;80.90;;;;;;4971512;28;20864;-74
2023/08/23 04:03:45;;;;;;;3.60;3.30;;;24.40;80.90;;;;;;4987266;28;20455;-74
2023/08/23 04:06:14;;;;;;;7.00;3.50;;;24.40;80.90;;;;;;4987571;28;20534;-74
2023/08/23 04:08:40;;;;;;;4.10;3.27;;;24.40;80.90;;;;;;5005270;28;21286;-73
2023/08/23 04:11:08;;;;;;;3.80;3.40;;;24.30;80.80;;;;;;4988001;28;20420;-74
2023/08/23 04:13:37;;;;;;;3.43;3.13;;;24.30;80.80;;;;;;5005296;28;20197;-73
2023/08/23 04:16:03;;;;;;;3.40;3.10;;;24.30;80.80;;;;;;4988196;28;20423;-74
2023/08/23 04:18:29;;;;;;;5.43;3.40;;;24.30;80.70;;;;;;4972249;28;20438;-74
2023/08/23 04:21:00;;;;;;;3.63;3.33;;;24.30;80.90;;;;;;4988208;28;20452;-74
2023/08/23 04:23:27;;;;;;;3.70;3.40;;;24.30;80.90;;;;;;4972035;28;20448;-75
2023/08/23 04:25:55;;;;;;;5.00;3.60;;;24.30;80.90;;;;;;4987833;28;20479;-74
2023/08/23 04:28:23;;;;;;;4.17;3.17;;;24.20;80.80;;;;;;4972062;28;21038;-75
2023/08/23 04:30:51;;;;;;;6.37;3.60;;;24.20;80.90;;;;;;4973464;28;20436;-75
2023/08/23 04:33:17;;;;;;;4.07;3.20;;;24.20;81.00;;;;;;4989191;28;20208;-75
2023/08/23 04:35:44;;;;;;;4.03;3.63;;;24.20;81.00;;;;;;4988649;28;20540;-76
2023/08/23 04:38:13;;;;;;;4.10;3.60;;;24.20;81.00;;;;;;4971638;28;20546;-75
2023/08/23 04:40:44;;;;;;;3.50;3.00;;;24.20;81.00;;;;;;4955458;28;20452;-75
2023/08/23 04:43:11;;;;;;;4.23;3.37;;;24.10;80.90;;;;;;4987045;28;20467;-74
2023/08/23 04:45:40;;;;;;;3.80;3.50;;;24.20;81.10;;;;;;4955356;28;20468;-75
2023/08/23 04:48:11;;;;;;;4.17;3.53;;;24.10;80.90;;;;;;4972001;28;20428;-74
2023/08/23 04:50:40;;;;;;;3.93;3.57;;;24.10;80.90;;;;;;4971621;28;20492;-73
2023/08/23 04:53:11;;;;;;;3.17;2.97;;;24.10;81.00;;;;;;4987267;28;20498;-73
2023/08/23 04:55:37;;;;;;;3.77;3.47;;;24.10;81.00;;;;;;4988123;28;20190;-73
2023/08/23 04:58:07;;;;;;;4.90;3.53;;;24.10;81.00;;;;;;4971696;28;20508;-73
2023/08/23 05:03:16;;;;;;;4.80;3.70;;;24.00;80.90;;;;;;5003418;28;20472;-72
2023/08/23 05:05:46;;;;;;;3.90;3.60;;;24.00;80.90;;;;;;5004134;28;20606;-72
2023/08/23 05:08:14;;;;;;;5.67;3.63;;;24.00;80.90;;;;;;4987336;28;21000;-72
2023/08/23 05:10:40;;;;;;;3.80;3.40;;;24.00;81.00;;;;;;5003813;28;20917;-72
2023/08/23 05:13:09;;;;;;;3.73;3.47;;;24.00;81.00;;;;;;5003829;28;20863;-72
2023/08/23 05:15:35;;;;;;;4.37;3.53;;;24.00;81.00;;;;;;5004385;28;20409;-72
2023/08/23 05:18:04;;;;;;;4.00;3.50;;;23.90;81.70;;;;;;4986618;28;20549;-72
2023/08/23 05:20:29;;;;;;;4.87;3.03;;;23.90;80.90;;;;;;4983062;28;20498;-72
2023/08/23 05:22:56;;;;;;;8.93;3.67;;;23.90;80.90;;;;;;4964071;28;20471;-72
2023/08/23 05:25:21;;;;;;;3.63;3.37;;;23.90;81.00;;;;;;5002234;28;20476;-72
2023/08/23 05:27:48;;;;;;;3.83;3.53;;;23.90;81.00;;;;;;4987228;28;20420;-72
2023/08/23 05:30:14;;;;;;;4.23;3.73;;;23.90;81.00;;;;;;4987649;28;20453;-72
2023/08/23 05:32:45;;;;;;;3.60;3.40;;;23.90;81.10;;;;;;4978639;28;20845;-72
2023/08/23 05:35:11;;;;;;;3.57;3.27;;;23.90;81.10;;;;;;4999371;28;20445;-72
2023/08/23 05:37:40;;;;;;;8.10;4.00;;;23.90;81.10;;;;;;5002898;28;20392;-72
2023/08/23 05:40:09;;;;;;;5.90;3.60;;;23.80;81.00;;;;;;4972907;28;20433;-72
2023/08/23 05:42:35;;;;;;;3.90;3.60;;;23.80;81.10;;;;;;4983284;28;20492;-72
2023/08/23 05:45:04;;;;;;;3.90;3.57;;;23.80;81.20;;;;;;4967671;28;20443;-72
2023/08/23 05:47:35;;;;;;;4.63;3.23;;;23.80;81.10;;;;;;4983243;28;20409;-72
2023/08/23 05:50:01;;;;;;;4.23;3.83;;;23.80;81.10;;;;;;4950712;28;20452;-72
2023/08/23 05:52:28;;;;;;;4.10;3.30;;;23.80;81.20;;;;;;4949865;28;21216;-72
2023/08/23 05:54:57;;;;;;;3.60;3.30;;;23.80;81.20;;;;;;4965822;28;20443;-72
2023/08/23 05:57:25;;;;;;;4.33;3.93;;;23.80;81.30;;;;;;4966010;28;20507;-72
2023/08/23 05:59:53;;;;;;;3.63;3.33;;;23.80;81.40;;;;;;4982013;28;20437;-72
2023/08/23 06:02:19;;;;;;;3.63;3.33;;;23.70;81.30;;;;;;4965997;28;20519;-72
2023/08/23 06:04:45;;;;;;;4.23;3.90;;;23.70;81.40;;;;;;4982348;28;21029;-72
2023/08/23 06:07:11;;;;;;;8.33;3.53;;;23.70;81.50;;;;;;4981430;28;20543;-72
2023/08/23 06:09:38;;;;;;;4.10;3.70;;;23.70;81.60;;;;;;4991785;28;20232;-72
2023/08/23 06:12:04;;;;;;;4.80;3.30;;;23.70;81.80;;;;;;4997268;28;20440;-72
2023/08/23 06:14:32;;;;;;;3.60;3.20;;;23.70;81.90;;;;;;4983652;28;20449;-72
2023/08/23 06:16:58;;;;;;;5.80;4.00;;;23.70;81.90;;;;;;4984217;28;20429;-72
2023/08/23 06:19:24;;;;;;;4.10;3.70;;;23.70;82.00;;;;;;4983606;28;21017;-72
2023/08/23 06:21:53;;;;;;;4.57;3.40;;;23.70;82.20;;;;;;4982258;28;20429;-72
2023/08/23 06:24:19;;;;;;;4.83;3.70;;;23.70;82.30;;;;;;4982762;28;20989;-72
2023/08/23 06:26:46;;;;;;;4.20;3.80;;;23.70;82.40;;;;;;4987718;28;20452;-72
2023/08/23 06:29:12;;;;;;;3.83;3.40;;;23.70;82.50;;;;;;5002763;28;20758;-72
2023/08/23 06:31:42;;;;;;;4.17;3.77;;;23.70;82.60;;;;;;5003253;28;20436;-72
2023/08/23 06:34:08;;;;;;;5.50;3.77;;;23.70;82.70;;;;;;5001417;28;20464;-71
2023/08/23 06:36:40;;;;;;;6.50;3.60;;;23.70;83.60;;;;;;4985574;28;20464;-72
2023/08/23 06:39:06;;;;;;;4.47;4.07;;;23.70;82.80;;;;;;4998236;28;20425;-72
2023/08/23 06:41:34;;;;;;;4.40;4.00;;;23.60;82.90;;;;;;4982756;28;20425;-72
2023/08/23 06:44:03;;;;;;;3.80;3.50;;;23.60;82.90;;;;;;4982568;28;20622;-72
2023/08/23 06:46:31;;;;;;;4.67;4.00;;;23.60;83.00;;;;;;4965270;28;20544;-72
2023/08/23 06:48:59;;;;;;;5.10;3.83;;;23.60;83.10;;;;;;4983371;28;20918;-72
2023/08/23 06:51:27;;;;;;;5.00;3.73;;;23.60;83.30;;;;;;4981160;28;20457;-72
2023/08/23 06:53:53;;;;;;;5.23;4.47;;;23.60;83.40;;;;;;4980698;28;20460;-73
2023/08/23 06:56:22;;;;;;;4.10;3.70;;;23.60;83.50;;;;;;4981014;28;20421;-73
2023/08/23 06:58:48;;;;;;;4.33;3.97;;;23.60;83.60;;;;;;4982120;28;20456;-72
2023/08/23 07:01:16;;;;;;;4.60;4.20;;;23.60;83.60;;;;;;4964818;28;20473;-72
2023/08/23 07:03:43;;;;;;;4.90;3.80;;;23.60;83.60;;;;;;4982020;28;21029;-72
2023/08/23 07:06:12;;;;;;;4.13;3.83;;;23.60;83.70;;;;;;4980809;28;20437;-72
2023/08/23 07:08:38;;;;;;;5.67;4.30;;;23.60;83.70;;;;;;4965740;28;21018;-72
2023/08/23 07:11:04;;;;;;;6.67;4.57;;;23.60;83.80;;;;;;4981743;28;20439;-72
2023/08/23 07:13:38;;;;;;;4.77;3.93;;;23.70;83.90;;;;;;4965386;28;20869;-72
2023/08/23 07:16:06;;;;;;;5.37;4.10;;;23.70;84.00;;;;;;4981378;28;20421;-72
2023/08/23 07:18:37;;;;;;;3.93;3.63;;;23.60;83.90;;;;;;4965478;28;20433;-72
2023/08/23 07:21:03;;;;;;;4.80;4.03;;;23.70;84.00;;;;;;4981213;28;20433;-72
2023/08/23 07:23:30;;;;;;;5.53;5.00;;;23.70;84.20;;;;;;4956025;28;20455;-72
2023/08/23 07:26:04;;;;;;;6.60;4.40;;;23.70;84.50;;;;;;4983977;28;20463;-72
2023/08/23 07:28:32;;;;;;;4.87;4.47;;;23.70;84.60;;;;;;4964867;28;21056;-72
2023/08/23 07:30:58;;;;;;;6.10;4.10;;;23.70;84.30;;;;;;4982592;28;20397;-72
2023/08/23 07:33:26;;;;;;;5.77;3.73;;;23.70;84.40;;;;;;4967960;28;20452;-72
2023/08/23 07:36:02;;;;;;;5.17;4.33;;;23.60;84.20;;;;;;4985180;28;20483;-72
2023/08/23 07:38:33;;;;;;;5.27;3.87;;;23.70;84.40;;;;;;4953112;28;20440;-72
2023/08/23 07:41:05;;;;;;;4.90;4.27;;;23.70;84.50;;;;;;4968782;28;21284;-72
2023/08/23 07:43:31;;;;;;;6.40;5.80;;;23.70;84.50;;;;;;4984712;28;20496;-72
2023/08/23 07:46:00;;;;;;;4.37;3.97;;;23.70;84.50;;;;;;4986056;28;21047;-72
2023/08/23 07:48:27;;;;;;;4.60;4.20;;;23.70;84.60;;;;;;4987291;28;21192;-72
2023/08/23 07:51:00;;;;;;;5.20;4.70;;;23.70;84.90;;;;;;4984807;28;20433;-72
2023/08/23 07:53:26;;;;;;;7.03;4.77;;;23.70;85.00;;;;;;4968552;28;20440;-72
2023/08/23 07:55:54;;;;;;;4.30;3.93;;;23.70;84.90;;;;;;4979361;28;20454;-72
2023/08/23 07:58:22;;;;;;;4.77;4.40;;;23.70;85.10;;;;;;4988592;28;20429;-72
2023/08/23 08:00:51;;;;;;;4.60;4.20;;;23.70;85.00;;;;;;4984015;28;20421;-72
2023/08/23 08:03:17;;;;;;;4.60;4.20;;;23.70;85.00;;;;;;4966729;28;21111;-72
2023/08/23 08:05:44;;;;;;;4.70;4.20;;;23.70;85.10;;;;;;4974879;28;20461;-72
2023/08/23 08:08:15;;;;;;;5.60;4.90;;;23.70;85.10;;;;;;4982910;28;20468;-72
2023/08/23 08:10:43;;;;;;;5.50;4.63;;;23.70;84.90;;;;;;4993256;28;20845;-72
2023/08/23 08:13:11;;;;;;;6.33;5.70;;;23.70;85.20;;;;;;4985260;28;20421;-72
2023/08/23 08:15:38;;;;;;;5.67;5.00;;;23.70;85.40;;;;;;4983497;28;20992;-72
2023/08/23 08:18:06;;;;;;;5.43;4.93;;;23.80;85.50;;;;;;4952268;28;20604;-72
2023/08/23 08:20:36;;;;;;;5.10;4.60;;;23.80;85.40;;;;;;4967541;28;20498;-72
2023/08/23 08:23:05;;;;;;;5.67;4.27;;;23.80;85.40;;;;;;4966760;28;20441;-72
2023/08/23 08:25:30;;;;;;;6.20;4.47;;;23.80;85.30;;;;;;4993265;28;20543;-72
2023/08/23 08:27:57;;;;;;;4.60;4.20;;;23.80;85.40;;;;;;5001957;28;20592;-72
2023/08/23 08:30:25;;;;;;;5.43;4.70;;;23.80;85.40;;;;;;5002736;28;20846;-71
2023/08/23 08:32:51;;;;;;;7.23;5.20;;;23.80;85.50;;;;;;5003130;28;20432;-72
2023/08/23 08:35:17;;;;;;;5.57;4.93;;;23.80;85.40;;;;;;4998800;28;20536;-72
2023/08/23 08:37:50;;;;;;;5.67;5.00;;;23.80;85.40;;;;;;4967441;28;21357;-72
2023/08/23 08:40:21;;;;;;;5.93;4.60;;;23.80;85.70;;;;;;4984575;28;20428;-72
2023/08/23 08:42:48;;;;;;;5.83;5.27;;;23.80;85.80;;;;;;4982741;28;20426;-72
2023/08/23 08:45:16;;;;;;;8.17;5.10;;;23.80;86.00;;;;;;4983058;28;20445;-72
2023/08/23 08:47:43;;;;;;;7.00;5.20;;;23.90;86.10;;;;;;4992786;28;20433;-72
2023/08/23 08:50:09;;;;;;;5.47;5.00;;;23.80;86.00;;;;;;4985943;28;20440;-72
2023/08/23 08:52:39;;;;;;;9.17;6.17;;;23.90;86.10;;;;;;4989432;28;20453;-72
2023/08/23 08:55:06;;;;;;;7.23;6.27;;;23.90;86.30;;;;;;4984374;28;20436;-72
2023/08/23 08:57:38;;;;;;;5.53;4.90;;;23.90;86.20;;;;;;4986817;28;20451;-73
2023/08/23 09:00:09;;;;;;;5.40;5.00;;;23.90;86.10;;;;;;5002942;28;20444;-71
2023/08/23 09:02:41;;;;;;;5.73;5.20;;;23.90;86.00;;;;;;4949011;28;1099422;-70
2023/08/23 09:05:13;;;;;;;7.50;5.53;;;23.90;85.90;;;;;;4979317;28;20301;-69
2023/08/23 09:07:45;;;;;;;7.00;5.10;;;24.00;86.10;;;;;;4984099;28;20437;-71
2023/08/23 09:10:16;;;;;;;5.90;5.10;;;24.00;86.20;;;;;;4985361;28;20440;-68
2023/08/23 09:12:44;;;;;;;6.73;5.30;;;24.00;86.20;;;;;;4984991;28;20410;-70
2023/08/23 09:15:11;;;;;;;7.80;7.03;;;24.00;86.10;;;;;;4985123;28;20524;-71
2023/08/23 09:17:39;;;;;;;5.77;5.27;;;24.10;86.40;;;;;;4984160;28;20511;-70
2023/08/23 09:20:08;;;;;;;5.90;5.30;;;24.10;86.60;;;;;;4967736;28;20421;-70
2023/08/23 09:22:35;;;;;;;5.20;4.60;;;24.10;86.40;;;;;;4983731;28;20412;-70
2023/08/23 09:25:05;;;;;;;6.13;5.20;;;24.10;86.40;;;;;;4983845;28;20476;-68
2023/08/23 09:27:36;;;;;;;5.60;5.03;;;24.20;86.50;;;;;;4983832;28;20409;-70
2023/08/23 09:30:04;;;;;;;5.67;5.07;;;24.20;86.50;;;;;;4983713;28;20424;-70
2023/08/23 09:32:32;;;;;;;7.30;5.27;;;24.20;86.50;;;;;;4985959;28;20449;-70
2023/08/23 09:35:14;;;;;;;6.50;5.47;;;24.20;86.50;;;;;;4983846;28;20437;-70
2023/08/23 09:37:45;;;;;;;6.73;5.23;;;24.20;87.50;;;;;;4967338;28;20957;-70
2023/08/23 09:40:25;;;;;;;5.77;4.80;;;24.30;86.70;;;;;;4983206;28;20836;-70
2023/08/23 09:42:55;;;;;;;5.57;5.07;;;24.30;86.60;;;;;;4951026;28;20452;-70
2023/08/23 09:45:23;;;;;;;6.70;5.77;;;24.40;86.60;;;;;;4965905;28;20475;-69
2023/08/23 09:47:59;;;;;;;6.67;5.00;;;24.40;86.70;;;;;;4995883;28;20506;-70
2023/08/23 09:50:28;;;;;;;6.73;4.97;;;24.40;86.70;;;;;;5002414;28;20483;-70
2023/08/23 09:53:22;;;;;;;6.17;5.37;;;24.40;86.60;;;;;;5004753;28;20447;-70
2023/08/23 09:55:48;;;;;;;8.03;5.20;;;24.40;86.70;;;;;;5004105;28;20401;-70
2023/08/23 09:58:15;;;;;;;4.87;4.50;;;24.50;86.70;;;;;;5002428;28;20474;-71
2023/08/23 10:00:47;;;;;;;5.63;5.23;;;24.50;86.70;;;;;;5002152;28;20405;-68
2023/08/23 10:03:16;;;;;;;5.60;4.97;;;24.50;86.60;;;;;;4985997;28;20927;-70
2023/08/23 10:05:43;;;;;;;6.03;5.50;;;24.60;86.70;;;;;;4968494;28;20469;-70
2023/08/23 10:08:12;;;;;;;4.93;4.53;;;24.60;86.70;;;;;;4967005;28;20424;-70
2023/08/23 10:10:42;;;;;;;5.90;5.40;;;24.70;86.90;;;;;;4988179;28;20421;-70
2023/08/23 10:13:08;;;;;;;5.27;4.77;;;24.70;86.90;;;;;;4986128;28;20929;-70
2023/08/23 10:15:39;;;;;;;5.13;4.73;;;24.70;86.60;;;;;;4985657;28;20459;-70
2023/08/23 10:18:15;;;;;;;5.43;4.93;;;24.70;86.40;;;;;;5001983;28;20416;-71
2023/08/23 10:20:51;;;;;;;5.77;4.83;;;24.80;86.50;;;;;;5003683;28;20423;-70
2023/08/23 10:23:18;;;;;;;8.17;4.83;;;24.80;86.50;;;;;;4986470;28;21234;-74
2023/08/23 10:25:48;;;;;;;5.20;4.70;;;24.90;86.80;;;;;;5001911;28;20574;-74
2023/08/23 10:28:20;;;;;;;5.10;4.70;;;24.90;86.50;;;;;;5003295;28;20481;-74
2023/08/23 10:30:49;;;;;;;6.00;5.40;;;24.90;86.40;;;;;;5000041;28;20428;-75
2023/08/23 10:33:20;;;;;;;5.50;5.00;;;25.00;87.40;;;;;;4982309;28;20430;-74
2023/08/23 10:35:47;;;;;;;5.07;4.57;;;25.00;86.50;;;;;;4981960;28;20524;-71
2023/08/23 10:38:18;;;;;;;5.20;4.70;;;25.00;86.40;;;;;;4982144;28;20421;-69
2023/08/23 10:40:47;;;;;;;5.03;4.60;;;25.00;87.00;;;;;;4983428;28;20516;-70
2023/08/23 10:43:20;;;;;;;5.97;5.00;;;25.10;86.00;;;;;;4982294;28;20926;-70
2023/08/23 10:45:55;;;;;;;4.40;4.10;;;25.10;86.20;;;;;;4982137;28;20444;-71
2023/08/23 10:48:25;;;;;;;5.60;4.30;;;25.10;86.20;;;;;;4982390;28;21171;-70
2023/08/23 10:50:53;;;;;;;5.57;5.07;;;25.20;86.20;;;;;;4982370;28;20433;-71
2023/08/23 10:53:19;;;;;;;4.63;4.20;;;25.20;86.20;;;;;;4983362;28;20405;-71
2023/08/23 10:55:49;;;;;;;5.33;4.90;;;25.20;86.00;;;;;;4982649;28;20501;-70
2023/08/23 10:58:16;;;;;;;5.70;4.23;;;25.20;85.90;;;;;;4966399;28;20869;-71
2023/08/23 11:00:43;;;;;;;5.13;4.73;;;25.30;86.00;;;;;;4983927;28;20500;-71
2023/08/23 11:03:11;;;;;;;6.93;5.30;;;25.30;85.90;;;;;;4968831;28;20695;-71
2023/08/23 11:05:37;;;;;;;5.00;4.53;;;25.40;85.90;;;;;;5001499;28;20451;-72
2023/08/23 11:08:07;;;;;;;5.20;4.70;;;25.40;85.80;;;;;;5005837;28;20407;-71
2023/08/23 11:10:35;;;;;;;4.97;4.50;;;25.40;85.70;;;;;;5007014;28;20762;-71
2023/08/23 11:13:04;;;;;;;5.03;4.63;;;25.40;85.70;;;;;;5007125;28;20519;-71
2023/08/23 11:15:30;;;;;;;5.10;4.70;;;25.50;85.70;;;;;;4989697;28;20424;-71
2023/08/23 11:17:56;;;;;;;4.90;4.53;;;25.50;85.70;;;;;;5005670;28;20442;-73
2023/08/23 11:20:22;;;;;;;5.37;4.87;;;25.50;85.60;;;;;;4989219;28;20428;-71
2023/08/23 11:22:48;;;;;;;5.60;4.73;;;25.50;85.40;;;;;;4989294;28;20448;-71
2023/08/23 11:25:14;;;;;;;5.80;5.30;;;25.60;85.50;;;;;;4987702;28;20606;-71
2023/08/23 11:27:47;;;;;;;5.10;4.70;;;25.60;85.50;;;;;;5005431;28;20643;-71
2023/08/23 11:30:13;;;;;;;6.40;5.50;;;25.70;85.40;;;;;;4987803;28;20455;-71
2023/08/23 11:32:44;;;;;;;5.07;4.57;;;25.70;85.40;;;;;;4989855;28;21202;-71
2023/08/23 11:35:12;;;;;;;5.30;4.80;;;25.70;85.40;;;;;;5007539;28;20497;-71
2023/08/23 11:37:40;;;;;;;6.97;4.60;;;25.70;85.40;;;;;;4988404;28;20538;-71
2023/08/23 11:40:12;;;;;;;6.07;4.70;;;25.80;85.30;;;;;;4985643;28;20672;-71
2023/08/23 11:42:41;;;;;;;5.50;4.53;;;25.80;85.20;;;;;;5004794;28;20275;-71
2023/08/23 11:45:07;;;;;;;5.17;4.63;;;25.90;85.20;;;;;;4989268;28;20490;-71
2023/08/23 11:47:35;;;;;;;6.80;4.60;;;25.90;85.20;;;;;;5006626;28;20451;-71
2023/08/23 11:50:04;;;;;;;5.07;4.60;;;25.90;85.10;;;;;;4973004;28;20504;-71
2023/08/23 11:52:34;;;;;;;5.30;4.80;;;25.90;85.10;;;;;;5004552;28;20518;-71
2023/08/23 11:55:04;;;;;;;5.13;4.70;;;26.00;85.10;;;;;;5003836;28;20469;-71
2023/08/23 11:57:34;;;;;;;5.30;4.80;;;26.00;84.90;;;;;;5003818;28;20400;-71
2023/08/23 12:00:01;;;;;;;5.97;4.40;;;26.00;84.70;;;;;;4987909;28;20868;-71
2023/08/23 12:02:33;;;;;;;5.60;4.10;;;26.10;84.50;;;;;;4988209;28;20515;-70
2023/08/23 12:05:02;;;;;;;4.97;4.50;;;26.10;84.20;;;;;;5005860;28;20523;-71
2023/08/23 12:07:31;;;;;;;5.83;5.23;;;26.10;83.50;;;;;;5005594;28;20486;-71
2023/08/23 12:09:56;;;;;;;5.17;4.67;;;26.10;83.30;;;;;;5005374;28;20853;-71
2023/08/23 12:12:23;;;;;;;5.10;4.70;;;26.10;83.10;;;;;;5004104;28;20431;-70
2023/08/23 12:14:51;;;;;;;5.70;5.10;;;26.20;82.80;;;;;;5005349;28;20412;-71
2023/08/23 12:17:19;;;;;;;5.70;5.10;;;26.20;82.60;;;;;;4987598;28;20489;-71
2023/08/23 12:19:45;;;;;;;4.47;4.17;;;26.20;82.80;;;;;;5004029;28;20416;-71
2023/08/23 12:22:14;;;;;;;4.83;4.33;;;26.20;82.30;;;;;;5004443;28;20451;-71
2023/08/23 12:24:43;;;;;;;5.20;4.80;;;26.30;82.60;;;;;;5003881;28;20216;-70
2023/08/23 12:27:15;;;;;;;4.40;4.03;;;26.30;82.30;;;;;;5003480;28;20456;-71
2023/08/23 12:29:41;;;;;;;7.77;4.53;;;26.40;82.40;;;;;;5004923;28;20415;-71
2023/08/23 12:32:10;;;;;;;5.03;4.50;;;26.40;82.30;;;;;;5003836;28;20477;-71
2023/08/23 12:34:38;;;;;;;4.40;3.93;;;26.40;82.00;;;;;;4987783;28;20487;-71
2023/08/23 12:37:04;;;;;;;6.00;4.50;;;26.40;82.20;;;;;;4987926;28;20462;-71
2023/08/23 12:39:33;;;;;;;4.77;4.37;;;26.40;82.10;;;;;;5005354;28;20452;-71
2023/08/23 12:41:59;;;;;;;5.13;4.70;;;26.50;82.20;;;;;;5003987;28;20533;-71
2023/08/23 12:44:25;;;;;;;4.53;4.13;;;26.50;82.30;;;;;;4971509;28;20568;-71
2023/08/23 12:46:55;;;;;;;6.07;4.60;;;26.50;82.40;;;;;;5005074;28;20271;-71
2023/08/23 12:49:22;;;;;;;4.40;4.07;;;26.60;82.40;;;;;;4985235;28;20550;-71
2023/08/23 12:51:50;;;;;;;4.50;4.07;;;26.60;82.40;;;;;;4997715;28;20455;-71
2023/08/23 12:54:16;;;;;;;5.10;4.70;;;26.60;81.80;;;;;;5003517;28;20547;-71
2023/08/23 12:56:45;;;;;;;6.53;4.63;;;26.70;81.80;;;;;;5005432;28;20519;-71